Latest Coastal Weather Observations for Warrnambool

IDV60701

Issued at 2:21 pm EST Tuesday 17 September 2019 (issued every 10 minutes, with the page automatically refreshed every 10 minutes)

About coastal observations | Map of coastal stations | Coastal observations for VIC | Marine services | Other Formats
Station Details ID: 090186 Name: WARRNAMBOOL AIRPORT NDB Lat: -38.29 Lon: 142.45 Height: 70.8 m
Data from the previous 72 hours. | See also: Recent months at Warrnambool
Date/Time
EST
Wind Sea
Height
m
Swell Vis
km
Cloud Weather Temp
°C
Press
hPa
Rain since
9am
mm
Dir  Spd
kts
Gust
kts
Height
m
Period
s
Dir
17/02:00pm SW 9 13 - - - - 10 Cloudy - 11.2 1028.7 0.0
17/01:30pm SW 9 12 - - - - 10 Cloudy - 11.0 1028.6 0.0
17/01:00pm S 7 11 - - - - 10 Cloudy - 11.0 1028.9 0.0
17/12:30pm SSE 6 10 - - - - 10 Cloudy - 11.0 1029.1 0.0
17/12:00pm S 1 6 - - - - 10 Mostly cloudy - 11.0 1029.4 0.0
17/11:30am SW 5 9 - - - - 10 Partly cloudy - 10.7 1029.6 0.0
17/11:00am WSW 5 6 - - - - 10 Partly cloudy - 10.0 1029.6 0.0
17/10:30am SW 6 9 - - - - 10 Cloudy - 9.9 1029.8 0.0
17/10:00am S 4 6 - - - - 10 Cloudy - 9.6 1030.0 0.0
17/09:30am S 4 7 - - - - 10 Partly cloudy - 9.0 1029.9 0.0
17/09:00am CALM 0 0 - - - - 10 Cloudy - 8.5 1029.7 0.0
17/08:30am NNW 2 3 - - - - 8 Cloudy - 5.3 1029.7 0.0
17/08:00am WNW 3 5 - - - - 10 Partly cloudy - 3.4 1029.6 0.0
17/07:30am NNW 4 5 - - - - 8 Partly cloudy - 1.0 1029.3 0.0
17/07:00am NNW 4 4 - - - - 8 - - 0.5 1028.7 0.0
17/06:30am NW 4 5 - - - - 9 Partly cloudy - 0.1 1028.4 0.0
17/06:00am NNW 3 4 - - - - 10 Partly cloudy - 0.2 1028.1 0.0
17/05:30am NW 4 5 - - - - 10 - - 0.1 1027.9 0.0
17/05:00am NW 5 5 - - - - 9 Partly cloudy - 0.8 1027.8 0.0
17/04:30am NW 6 6 - - - - 10 Partly cloudy - 0.4 1027.5 0.0
17/04:00am N 3 5 - - - - 9 - - 0.5 1027.5 0.0
17/03:30am NNW 3 4 - - - - 9 - - 0.7 1027.5 0.0
17/03:00am CALM 0 0 - - - - 10 - - 1.5 1027.6 0.0
17/02:30am CALM 0 0 - - - - 9 Partly cloudy - 2.2 1027.7 0.0
17/02:00am NW 1 3 - - - - 10 Partly cloudy - 1.4 1027.9 0.0
17/01:30am NNW 4 5 - - - - 9 - - 1.4 1028.0 0.0
17/01:00am NNW 4 4 - - - - 10 Partly cloudy - 1.8 1028.2 0.0
17/12:30am NW 4 5 - - - - 10 Partly cloudy - 2.1 1028.3 0.0
17/12:00am N 3 5 - - - - 10 - - 2.6 1028.2 0.0
 
Date/Time
EST
Wind Sea
Height
m
Swell Vis
km
Cloud Weather Temp
°C
Press
hPa
Rain since
9am
mm
Dir  Spd
kts
Gust
kts
Height
m
Period
s
Dir
16/11:30pm CALM 0 0 - - - - 10 Partly cloudy - 3.2 1028.1 0.0
16/11:00pm CALM 0 0 - - - - 8 Partly cloudy - 3.9 1028.2 0.0
16/10:30pm CALM 0 0 - - - - 9 Partly cloudy - 4.0 1028.1 0.0
16/10:00pm CALM 0 0 - - - - 10 Partly cloudy - 4.6 1028.1 0.0
16/09:30pm SSE 6 7 - - - - 10 - - 5.0 1028.1 0.0
16/09:00pm S 6 7 - - - - 8 - - 5.5 1027.8 0.0
16/08:30pm SSE 5 6 - - - - 9 - - 6.0 1027.6 0.0
16/08:00pm ESE 4 7 - - - - 10 Partly cloudy - 6.5 1027.5 0.0
16/07:30pm SSE 8 11 - - - - 10 Partly cloudy - 7.0 1027.3 0.0
16/07:00pm SE 6 7 - - - - 10 - - 6.5 1026.8 0.0
16/06:30pm S 9 12 - - - - 10 Partly cloudy - 8.0 1026.3 0.0
16/06:00pm S 11 13 - - - - 10 Mostly clear - 8.4 1026.0 0.0
16/05:30pm SSW 12 14 - - - - 10 Partly cloudy - 9.5 1025.7 0.0
16/05:00pm SSW 14 17 - - - - 10 - - 9.4 1025.3 0.0
16/04:30pm SSW 16 21 - - - - 10 Partly cloudy - 9.9 1025.1 0.0
16/04:00pm SSW 14 18 - - - - 10 Partly cloudy - 10.7 1024.9 0.0
16/03:30pm SSW 16 20 - - - - 10 Partly cloudy - 10.4 1024.6 0.0
16/03:00pm SSW 16 21 - - - - 10 Partly cloudy - 10.9 1024.4 0.0
16/02:30pm S 16 21 - - - - 10 Partly cloudy - 11.0 1024.2 0.0
16/02:00pm SSW 17 23 - - - - 10 - - 11.1 1024.2 0.0
16/01:30pm S 18 26 - - - - 10 Partly cloudy - 10.2 1023.9 0.0
16/01:00pm SSW 17 22 - - - - 10 Partly cloudy - 11.1 1023.6 0.0
16/12:30pm SSW 18 25 - - - - 10 Partly cloudy - 10.7 1023.5 0.0
16/12:00pm SW 14 18 - - - - 10 Cloudy - 10.8 1023.4 0.0
16/11:30am SSW 21 25 - - - - 10 Partly cloudy - 9.6 1023.5 0.0
16/11:00am SSW 18 23 - - - - 10 Partly cloudy - 10.4 1023.2 0.0
16/10:30am SSW 19 24 - - - - 10 Partly cloudy - 10.6 1023.1 0.0
16/10:00am SSW 22 29 - - - - 10 Partly cloudy - 10.7 1022.8 0.0
16/09:30am SSW 16 22 - - - - 10 Partly cloudy - 10.0 1022.5 0.0
16/09:00am SSW 15 18 - - - - 10 Partly cloudy - 10.6 1022.2 17.0
16/08:30am SSW 13 16 - - - - 10 Partly cloudy - 9.3 1021.7 17.0
16/08:00am SSW 10 12 - - - - 10 Partly cloudy - 9.7 1021.1 17.0
16/07:30am SSW 11 17 - - - - 10 Partly cloudy - 8.8 1020.8 17.0
16/07:00am SSW 13 17 - - - - 10 Partly cloudy - 8.4 1020.6 17.0
16/06:30am SSW 15 20 - - - - 9 Partly cloudy - 8.8 1020.2 17.0
16/06:00am SSW 13 15 - - - - 9 Mostly cloudy - 8.2 1019.6 17.0
16/05:30am SSW 12 15 - - - - 8 Partly cloudy - 8.5 1019.2 17.0
16/05:00am SSW 12 15 - - - - 10 Cloudy - 8.3 1019.1 17.0
16/04:30am SSW 15 20 - - - - 9 Partly cloudy - 9.4 1018.7 17.0
16/04:00am SSW 15 18 - - - - 9 Partly cloudy - 9.3 1018.4 17.0
16/03:30am SW 14 16 - - - - 9 Partly cloudy - 9.9 1018.2 17.0
16/03:00am SW 15 19 - - - - 10 Cloudy - 9.6 1018.1 17.0
16/02:30am WSW 12 19 - - - - 10 Partly cloudy - 9.7 1017.7 17.0
16/02:00am W 10 13 - - - - 9 Partly cloudy - 8.9 1017.4 17.0
16/01:30am W 8 10 - - - - 9 Cloudy - 8.2 1017.6 17.0
16/01:00am W 9 11 - - - - 9 Partly cloudy - 8.5 1017.9 17.0
16/12:30am W 12 16 - - - - 9 Partly cloudy - 9.0 1017.6 17.0
16/12:00am WSW 11 15 - - - - 9 Cloudy - 9.6 1017.5 17.0
 
Date/Time
EST
Wind Sea
Height
m
Swell Vis
km
Cloud Weather Temp
°C
Press
hPa
Rain since
9am
mm
Dir  Spd
kts
Gust
kts
Height
m
Period
s
Dir
15/11:30pm W 12 16 - - - - 9 Partly cloudy - 9.5 1017.5 17.0
15/11:00pm W 12 16 - - - - 8 Partly cloudy - 9.5 1017.5 17.0
15/10:30pm W 8 11 - - - - 10 Partly cloudy - 9.2 1016.9 17.0
15/10:00pm WNW 10 14 - - - - 10 Partly cloudy - 9.5 1017.3 17.0
15/09:30pm W 9 11 - - - - 10 Partly cloudy - 9.6 1016.8 17.0
15/09:08pm W 12 15 - - - - 8 Partly cloudy - 10.0 1016.9 15.8
15/09:00pm W 13 16 - - - - 9 Cloudy Rain 10.2 1017.1 15.4
15/08:58pm WSW 12 16 - - - - 10 Partly cloudy - 10.2 1017.0 15.2
15/08:50pm WSW 12 17 - - - - 10 Partly cloudy - 10.1 1016.7 14.8
15/08:36pm SW 12 20 - - - - 8 Partly cloudy - 10.3 1016.5 14.8
15/08:30pm WSW 10 15 - - - - 6 Partly cloudy - 10.4 1015.8 14.6
15/08:08pm SW 13 17 - - - - 5 Partly cloudy - 10.9 1017.0 11.8
15/08:00pm SW 13 17 - - - - 9 Cloudy - 10.9 1016.4 10.8
15/07:30pm SW 12 15 - - - - 8 Partly cloudy - 11.0 1015.7 9.2
15/07:00pm SW 16 20 - - - - 10 Partly cloudy - 12.3 1015.2 9.2
15/06:30pm NW 12 16 - - - - 10 Partly cloudy - 14.2 1014.6 9.2
15/06:00pm NW 11 14 - - - - 10 Cloudy Recent precip. 14.0 1014.1 9.2
15/05:30pm NW 13 18 - - - - 10 Partly cloudy - 14.1 1014.2 9.2
15/05:00pm NW 15 21 - - - - 10 Partly cloudy - 14.3 1015.3 8.4
15/04:30pm WNW 12 18 - - - - 10 Partly cloudy - 14.9 1015.1 6.6
15/04:00pm NW 11 17 - - - - 10 Partly cloudy - 15.2 1014.5 5.6
15/03:30pm NW 12 14 - - - - 10 Partly cloudy - 15.3 1014.2 5.4
15/03:00pm NNW 7 14 - - - - 10 Cloudy Recent precip. 15.2 1013.0 5.2
15/02:51pm N 11 16 - - - - 10 Partly cloudy - 14.8 1012.3 5.2
15/02:30pm NW 7 10 - - - - 8 Partly cloudy - 14.7 1014.4 4.0
15/02:00pm W 17 24 - - - - 10 Partly cloudy - 15.4 1016.0 2.4
15/01:30pm WNW 15 20 - - - - 10 Partly cloudy - 17.3 1014.8 1.4
15/01:00pm NW 14 20 - - - - 10 Partly cloudy - 17.8 1014.8 1.0
15/12:30pm NNW 13 18 - - - - 10 Partly cloudy - 17.4 1015.0 1.0
15/12:00pm N 14 18 - - - - 10 Cloudy Recent precip. 17.5 1014.9 1.0
15/11:30am N 10 13 - - - - 10 Partly cloudy - 16.7 1014.8 1.0
15/11:00am NNW 7 8 - - - - 10 Partly cloudy - 15.9 1015.9 0.8
15/10:30am NW 5 7 - - - - 10 Partly cloudy - 14.9 1016.2 0.8
15/10:00am W 3 5 - - - - 10 Partly cloudy - 14.5 1016.8 0.8
15/09:30am W 6 8 - - - - 10 Cloudy - 14.1 1017.3 0.4
15/09:00am W 5 6 - - - - 10 Cloudy - 14.8 1017.2 0.0
15/08:30am N 3 5 - - - - 10 Cloudy - 14.1 1017.0 0.0
15/08:00am CALM 0 4 - - - - 10 Partly cloudy - 13.5 1016.9 0.0
15/07:30am CALM 0 0 - - - - 10 Partly cloudy - 12.4 1016.6 0.0
15/07:00am CALM 0 0 - - - - 10 Partly cloudy - 11.1 1016.7 0.0
15/06:30am SSW 7 8 - - - - 10 Partly cloudy - 12.2 1016.8 0.0
15/06:00am NNW 4 5 - - - - 10 Cloudy - 12.8 1016.5 0.0
15/05:30am NW 6 8 - - - - 10 Partly cloudy - 13.4 1016.5 0.0
15/05:00am NNW 11 13 - - - - 10 Partly cloudy - 14.0 1016.3 0.0
15/04:30am NNW 11 15 - - - - 10 Cloudy - 14.5 1016.4 0.0
15/04:00am N 12 14 - - - - 10 Cloudy - 13.5 1015.9 0.0
15/03:30am N 11 14 - - - - 10 Partly cloudy - 13.5 1016.0 0.0
15/03:00am N 13 17 - - - - 10 Cloudy - 13.9 1016.7 0.0
15/02:30am N 11 13 - - - - 10 Cloudy - 14.3 1017.7 0.0
15/02:00am NNW 13 16 - - - - 10 Partly cloudy - 15.1 1018.1 0.0
15/01:30am NNW 11 14 - - - - 10 Partly cloudy - 14.9 1018.7 0.0
15/01:00am N 11 13 - - - - 10 Partly cloudy - 14.3 1018.5 0.0
15/12:30am N 11 15 - - - - 10 Partly cloudy - 14.7 1019.0 0.0
15/12:00am NNW 13 16 - - - - 10 Cloudy - 14.8 1019.6 0.0
 
Date/Time
EST
Wind Sea
Height
m
Swell Vis
km
Cloud Weather Temp
°C
Press
hPa
Rain since
9am
mm
Dir  Spd
kts
Gust
kts
Height
m
Period
s
Dir
14/11:30pm N 10 13 - - - - 10 Cloudy - 14.6 1019.5 0.0
14/11:00pm N 9 11 - - - - 8 Cloudy - 14.3 1019.9 0.0
14/10:30pm NNW 11 14 - - - - 10 Partly cloudy - 15.0 1020.2 0.0
14/10:00pm N 12 15 - - - - 10 Cloudy - 15.0 1020.3 0.0
14/09:30pm NNW 9 12 - - - - 10 Cloudy - 14.4 1020.8 0.0
14/09:00pm NNW 12 14 - - - - 10 Cloudy - 14.4 1021.1 0.0
14/08:30pm NNW 9 13 - - - - 10 Partly cloudy - 14.3 1021.1 0.0
14/08:00pm N 10 13 - - - - 10 Partly cloudy - 14.5 1020.9 0.0
14/07:30pm N 8 11 - - - - 10 - - 13.8 1021.1 0.0
14/07:00pm N 10 12 - - - - 10 Cloudy - 14.6 1020.9 0.0
14/06:30pm N 8 11 - - - - 10 Cloudy - 15.1 1021.3 0.0
14/06:00pm N 7 9 - - - - 10 Mostly cloudy - 15.6 1021.5 0.0
14/05:30pm WNW 6 7 - - - - 10 Partly cloudy - 16.5 1022.1 0.0
14/05:00pm N 7 9 - - - - 10 Cloudy - 17.1 1021.3 0.0
14/04:30pm NNW 11 14 - - - - 10 Cloudy - 17.3 1021.9 0.0
14/04:00pm NNW 12 16 - - - - 10 Partly cloudy - 17.9 1021.8 0.0
14/03:30pm NNW 12 16 - - - - 10 - - 18.4 1021.8 0.0
14/03:00pm NNW 10 14 - - - - 10 - - 18.2 1022.0 0.0
14/02:30pm NNW 10 13 - - - - 10 - - 17.7 1022.6 0.0

Other formats

Comma delimited format used in spreadsheet applications
http://www.bom.gov.au/fwo/IDV60701/IDV60701.94837.axf

JavaScript Object Notation format (JSON) in row-major order
http://www.bom.gov.au/fwo/IDV60701/IDV60701.94837.json

Data quality

Most of these data are generated automatically and are frequently updated. Quality checks on data are not normally performed. It is possible for incorrect values to appear. Refer to information at About Latest Weather Observations and please check the disclaimer before using these data.